createdAt,value
2022-12-10T00:02:38.452Z,14.27
2022-12-10T00:05:41.104Z,14.45
2022-12-10T00:08:43.780Z,14.32
2022-12-10T00:11:46.749Z,13.10
2022-12-10T00:14:49.750Z,15.27
2022-12-10T00:17:52.579Z,15.02
2022-12-10T00:20:55.318Z,16.92
2022-12-10T00:23:57.786Z,17.10
2022-12-10T00:27:00.305Z,13.60
2022-12-10T00:30:02.526Z,15.63
2022-12-10T00:33:04.679Z,14.60
2022-12-10T00:36:06.910Z,12.50
2022-12-10T00:39:09.353Z,15.05
2022-12-10T00:42:12.100Z,14.65
2022-12-10T00:45:14.926Z,13.82
2022-12-10T00:48:17.587Z,14.43
2022-12-10T00:51:19.761Z,13.98
2022-12-10T00:54:21.989Z,12.95
2022-12-10T00:57:24.206Z,13.63
2022-12-10T01:00:26.659Z,14.50
2022-12-10T01:03:29.842Z,13.85
2022-12-10T01:06:32.215Z,13.60
2022-12-10T01:09:34.823Z,14.57
2022-12-10T01:12:36.946Z,14.25
2022-12-10T01:15:39.175Z,15.50
2022-12-10T01:18:41.340Z,14.77
2022-12-10T01:21:43.898Z,14.93
2022-12-10T01:24:46.644Z,13.55
2022-12-10T01:27:48.780Z,14.38
2022-12-10T01:30:52.715Z,12.95
2022-12-10T01:33:55.010Z,13.65
2022-12-10T01:36:57.885Z,13.70
2022-12-10T01:40:00.472Z,14.52
2022-12-10T01:43:03.098Z,13.80
2022-12-10T01:46:06.018Z,14.27
2022-12-10T01:49:10.169Z,13.55
2022-12-10T01:52:13.989Z,12.88
2022-12-10T01:55:16.894Z,15.13
2022-12-10T01:58:19.899Z,13.48
2022-12-10T02:01:22.647Z,15.48
2022-12-10T02:04:25.793Z,14.50
2022-12-10T02:07:28.234Z,14.15
2022-12-10T02:10:31.189Z,15.00
2022-12-10T02:13:33.817Z,14.45
2022-12-10T02:16:37.166Z,15.50
2022-12-10T02:19:39.853Z,13.48
2022-12-10T02:22:42.388Z,13.55
2022-12-10T02:25:45.114Z,13.45
2022-12-10T02:28:48.284Z,13.13
2022-12-10T02:31:51.712Z,13.45
2022-12-10T02:34:54.307Z,14.68
2022-12-10T02:37:57.218Z,13.10
2022-12-10T02:41:00.033Z,13.40
2022-12-10T02:44:02.467Z,14.15
2022-12-10T02:47:05.140Z,14.43
2022-12-10T02:50:12.420Z,14.10
2022-12-10T02:53:15.318Z,14.18
2022-12-10T02:56:18.057Z,14.45
2022-12-10T02:59:23.178Z,15.50
2022-12-10T03:02:29.221Z,15.82
2022-12-10T03:05:31.644Z,13.50
2022-12-10T03:08:34.727Z,15.70
2022-12-10T03:11:37.500Z,14.00
2022-12-10T03:14:40.361Z,15.27
2022-12-10T03:17:42.987Z,15.50
2022-12-10T03:20:45.273Z,15.07
2022-12-10T03:23:47.896Z,13.48
2022-12-10T03:26:50.902Z,14.43
2022-12-10T03:29:53.770Z,14.38
2022-12-10T03:32:56.609Z,14.82
2022-12-10T03:35:59.055Z,14.15
2022-12-10T03:39:01.932Z,15.35
2022-12-10T03:42:05.020Z,16.67
2022-12-10T03:45:07.843Z,16.95
2022-12-10T03:48:10.717Z,16.98
2022-12-10T03:51:13.125Z,17.98
2022-12-10T03:54:15.871Z,17.42
2022-12-10T03:57:18.662Z,19.77
2022-12-10T04:00:21.734Z,19.85
2022-12-10T04:03:24.836Z,19.15
2022-12-10T04:06:27.666Z,20.00
2022-12-10T04:09:30.533Z,17.88
2022-12-10T04:12:33.922Z,19.83
2022-12-10T04:15:37.307Z,20.05
2022-12-10T04:18:40.030Z,18.13
2022-12-10T04:21:42.846Z,18.92
2022-12-10T04:24:45.054Z,20.63
2022-12-10T04:27:47.285Z,20.33
2022-12-10T04:30:50.204Z,19.52
2022-12-10T04:33:53.027Z,19.02
2022-12-10T04:36:55.357Z,21.73
2022-12-10T04:39:57.989Z,19.85
2022-12-10T04:43:00.482Z,22.25
2022-12-10T04:46:02.963Z,22.88
2022-12-10T04:49:05.207Z,24.83
2022-12-10T04:52:07.419Z,22.45
2022-12-10T04:55:10.247Z,23.30
2022-12-10T04:58:12.837Z,21.08
2022-12-10T05:01:15.417Z,21.80
2022-12-10T05:04:18.002Z,22.90
2022-12-10T05:07:20.901Z,23.42
2022-12-10T05:10:24.329Z,22.85
2022-12-10T05:13:28.721Z,20.80
2022-12-10T05:16:31.688Z,21.13
2022-12-10T05:19:34.721Z,21.05
2022-12-10T05:22:37.396Z,19.85
2022-12-10T05:25:40.429Z,22.88
2022-12-10T05:28:43.405Z,20.65
2022-12-10T05:31:45.806Z,20.65
2022-12-10T05:34:48.446Z,21.50
2022-12-10T05:37:50.898Z,21.42
2022-12-10T05:40:57.023Z,22.00
2022-12-10T05:44:00.796Z,20.13
2022-12-10T05:47:04.189Z,22.70
2022-12-10T05:50:07.668Z,21.58
2022-12-10T05:53:10.865Z,23.42
2022-12-10T05:56:13.327Z,22.52
2022-12-10T05:59:17.255Z,22.02
2022-12-10T06:02:20.041Z,19.15
2022-12-10T06:05:22.214Z,21.90
2022-12-10T06:08:24.604Z,20.67
2022-12-10T06:11:27.620Z,20.75
2022-12-10T06:14:30.941Z,20.65
2022-12-10T06:17:34.711Z,22.25
2022-12-10T06:20:37.318Z,19.88
2022-12-10T06:23:39.902Z,21.45
2022-12-10T06:26:42.553Z,19.40
2022-12-10T06:29:45.591Z,20.30
2022-12-10T06:32:48.740Z,21.13
2022-12-10T06:35:51.511Z,21.15
2022-12-10T06:38:54.862Z,23.27
2022-12-10T06:41:59.209Z,23.77
2022-12-10T06:45:02.244Z,21.20
2022-12-10T06:48:05.519Z,22.48
2022-12-10T06:51:09.314Z,21.85
2022-12-10T06:54:12.508Z,23.13
2022-12-10T06:57:15.733Z,21.65
2022-12-10T07:00:21.878Z,23.30
2022-12-10T07:03:24.451Z,20.48
2022-12-10T07:06:27.260Z,20.88
2022-12-10T07:09:30.295Z,19.52
2022-12-10T07:12:33.029Z,20.40
2022-12-10T07:15:36.106Z,21.95
2022-12-10T07:18:38.540Z,21.10
2022-12-10T07:21:40.681Z,19.45
2022-12-10T07:24:43.069Z,20.75
2022-12-10T07:27:46.040Z,21.15
2022-12-10T07:30:48.977Z,20.95
2022-12-10T07:33:51.995Z,21.60
2022-12-10T07:36:54.727Z,22.88
2022-12-10T07:39:57.588Z,23.33
2022-12-10T07:43:00.197Z,22.70
2022-12-10T07:46:02.910Z,22.98
2022-12-10T07:49:05.766Z,22.27
2022-12-10T07:52:08.609Z,21.63
2022-12-10T07:55:12.512Z,22.77
2022-12-10T07:58:14.913Z,22.42
2022-12-10T08:01:17.198Z,20.83
2022-12-10T08:04:19.648Z,19.48
2022-12-10T08:07:22.339Z,20.92
2022-12-10T08:10:25.435Z,21.48
2022-12-10T08:13:28.281Z,21.20
2022-12-10T08:16:30.480Z,22.05
2022-12-10T08:19:33.156Z,22.13
2022-12-10T08:22:35.281Z,18.90
2022-12-10T08:25:40.632Z,20.85
2022-12-10T08:28:43.300Z,21.40
2022-12-10T08:31:46.068Z,21.88
2022-12-10T08:34:48.510Z,22.83
2022-12-10T08:37:51.891Z,21.35
2022-12-10T08:40:54.117Z,20.90
2022-12-10T08:43:57.059Z,24.10
2022-12-10T08:46:59.905Z,23.13
2022-12-10T08:50:02.763Z,24.52
2022-12-10T08:53:05.680Z,22.42
2022-12-10T08:56:08.767Z,21.40
2022-12-10T08:59:11.740Z,21.05
2022-12-10T09:02:14.368Z,21.00
2022-12-10T09:05:17.146Z,19.80
2022-12-10T09:08:19.626Z,21.00
2022-12-10T09:11:21.837Z,20.15
2022-12-10T09:14:25.038Z,20.48
2022-12-10T09:17:27.675Z,19.17
2022-12-10T09:20:30.392Z,20.80
2022-12-10T09:23:33.213Z,19.98
2022-12-10T09:26:37.015Z,21.73
2022-12-10T09:29:39.862Z,21.27
2022-12-10T09:32:42.107Z,23.13
2022-12-10T09:35:45.058Z,20.42
2022-12-10T09:38:48.249Z,22.92
2022-12-10T09:41:51.044Z,22.88
2022-12-10T09:44:53.685Z,21.05
2022-12-10T09:47:56.442Z,20.85
2022-12-10T09:51:00.178Z,20.25
2022-12-10T09:54:03.164Z,20.58
2022-12-10T09:57:05.780Z,18.15
2022-12-10T10:00:08.770Z,20.70
2022-12-10T10:03:14.057Z,17.23
2022-12-10T10:06:17.349Z,17.23
2022-12-10T10:09:20.864Z,18.75
2022-12-10T10:12:23.380Z,18.15
2022-12-10T10:15:26.866Z,17.40
2022-12-10T10:18:29.508Z,17.92
2022-12-10T10:21:33.499Z,18.23
2022-12-10T10:24:36.785Z,20.48
2022-12-10T10:27:40.136Z,20.23
2022-12-10T10:30:43.472Z,18.60
2022-12-10T10:33:46.045Z,18.42
2022-12-10T10:36:48.856Z,19.98
2022-12-10T10:39:52.819Z,19.30
2022-12-10T10:42:56.075Z,18.88
2022-12-10T10:45:59.425Z,20.23
2022-12-10T10:49:03.321Z,20.05
2022-12-10T10:52:06.732Z,20.10
2022-12-10T10:55:09.979Z,18.83
2022-12-10T10:58:12.887Z,20.20
2022-12-10T11:01:15.861Z,18.38
2022-12-10T11:04:19.100Z,17.98
2022-12-10T11:07:22.306Z,17.40
2022-12-10T11:10:25.476Z,18.65
2022-12-10T11:13:28.468Z,16.80
2022-12-10T11:16:30.911Z,18.35
2022-12-10T11:19:34.136Z,18.15
2022-12-10T11:22:36.995Z,17.02
2022-12-10T11:25:40.056Z,19.23
2022-12-10T11:28:43.490Z,18.10
2022-12-10T11:31:45.621Z,18.25
2022-12-10T11:34:48.472Z,17.88
2022-12-10T11:37:50.773Z,20.38
2022-12-10T11:40:53.597Z,19.02
2022-12-10T11:43:56.105Z,20.77
2022-12-10T11:46:59.140Z,19.38
2022-12-10T11:50:02.406Z,19.08
2022-12-10T11:53:05.958Z,18.48
2022-12-10T11:56:09.219Z,18.52
2022-12-10T11:59:16.876Z,18.77
2022-12-10T12:02:20.410Z,17.17
2022-12-10T12:05:24.183Z,17.40
2022-12-10T12:08:28.128Z,17.45
2022-12-10T12:11:31.870Z,17.00
2022-12-10T12:14:34.621Z,16.40
2022-12-10T12:17:37.716Z,17.00
2022-12-10T12:20:40.635Z,17.42
2022-12-10T12:23:43.174Z,14.80
2022-12-10T12:26:45.636Z,16.38
2022-12-10T12:29:47.949Z,16.10
2022-12-10T12:32:51.101Z,17.38
2022-12-10T12:35:55.019Z,16.60
2022-12-10T12:38:59.488Z,18.67
2022-12-10T12:42:03.870Z,15.65
2022-12-10T12:45:06.743Z,16.80
2022-12-10T12:48:09.525Z,17.05
2022-12-10T12:51:12.832Z,17.67
2022-12-10T12:54:16.389Z,16.48
2022-12-10T12:57:20.423Z,16.98
2022-12-10T13:00:23.626Z,17.95
2022-12-10T13:03:26.529Z,15.70
2022-12-10T13:06:29.148Z,16.42
2022-12-10T13:09:32.120Z,15.68
2022-12-10T13:12:35.434Z,15.30
2022-12-10T13:15:38.646Z,15.30
2022-12-10T13:18:41.086Z,15.23
2022-12-10T13:21:43.591Z,15.15
2022-12-10T13:24:46.360Z,15.52
2022-12-10T13:27:49.250Z,14.38
2022-12-10T13:30:52.350Z,14.57
2022-12-10T13:33:54.516Z,14.52
2022-12-10T13:36:57.135Z,14.35
2022-12-10T13:40:00.338Z,15.05
2022-12-10T13:43:03.568Z,15.15
2022-12-10T13:46:06.746Z,16.00
2022-12-10T13:49:09.293Z,15.43
2022-12-10T13:52:12.418Z,15.07
2022-12-10T13:55:21.212Z,15.30
2022-12-10T13:58:24.662Z,15.93
2022-12-10T14:01:27.803Z,14.73
2022-12-10T14:04:31.831Z,13.98
2022-12-10T14:07:35.501Z,14.27
2022-12-10T14:10:38.722Z,12.45
2022-12-10T14:13:41.920Z,12.50
2022-12-10T14:16:44.810Z,14.32
2022-12-10T14:19:47.572Z,11.93
2022-12-10T14:22:50.549Z,13.18
2022-12-10T14:25:53.115Z,12.57
2022-12-10T14:28:55.581Z,12.93
2022-12-10T14:31:59.087Z,11.73
2022-12-10T14:35:02.571Z,12.93
2022-12-10T14:38:05.438Z,12.57
2022-12-10T14:41:08.412Z,13.63
2022-12-10T14:44:11.934Z,11.43
2022-12-10T14:47:15.838Z,12.02
2022-12-10T14:50:19.031Z,13.30
2022-12-10T14:53:28.021Z,13.35
2022-12-10T14:56:31.679Z,12.27
2022-12-10T14:59:34.707Z,12.30
2022-12-10T15:02:38.198Z,12.65
2022-12-10T15:05:41.642Z,12.82
2022-12-10T15:08:43.816Z,12.80
2022-12-10T15:11:47.092Z,12.07
2022-12-10T15:14:51.282Z,11.70
2022-12-10T15:17:54.950Z,12.00
2022-12-10T15:20:58.408Z,11.15
2022-12-10T15:24:01.840Z,11.00
2022-12-10T15:27:04.259Z,11.10
2022-12-10T15:30:06.951Z,11.38
2022-12-10T15:33:09.983Z,12.75
2022-12-10T15:36:12.994Z,12.95
2022-12-10T15:39:16.074Z,11.32
2022-12-10T15:42:19.255Z,12.50
2022-12-10T15:45:23.044Z,11.48
2022-12-10T15:48:27.548Z,12.48
2022-12-10T15:51:31.399Z,11.40
2022-12-10T15:54:33.787Z,12.93
2022-12-10T15:57:35.981Z,13.05
2022-12-10T16:00:38.979Z,11.43
2022-12-10T16:03:42.089Z,12.50
2022-12-10T16:06:45.046Z,12.38
2022-12-10T16:09:47.793Z,11.00
2022-12-10T16:12:50.688Z,10.52
2022-12-10T16:15:53.043Z,11.48
2022-12-10T16:18:55.493Z,12.30
2022-12-10T16:21:58.119Z,11.05
2022-12-10T16:25:01.107Z,12.02
2022-12-10T16:28:04.044Z,13.55
2022-12-10T16:31:06.187Z,11.88
2022-12-10T16:34:08.338Z,13.05
2022-12-10T16:37:11.006Z,13.43
2022-12-10T16:40:14.738Z,12.75
2022-12-10T16:43:17.917Z,13.90
2022-12-10T16:46:21.192Z,12.90
2022-12-10T16:49:24.471Z,13.80
2022-12-10T16:52:26.931Z,14.25
2022-12-10T16:55:29.530Z,13.38
2022-12-10T16:58:32.900Z,14.35
2022-12-10T17:01:35.604Z,13.90
2022-12-10T17:04:37.770Z,13.50
2022-12-10T17:07:40.337Z,13.70
2022-12-10T17:10:45.028Z,12.18
2022-12-10T17:13:47.968Z,12.98
2022-12-10T17:16:50.949Z,13.25
2022-12-10T17:19:53.826Z,13.82
2022-12-10T17:22:55.946Z,13.15
2022-12-10T17:25:58.143Z,12.98
2022-12-10T17:29:01.214Z,14.13
2022-12-10T17:32:04.294Z,14.07
2022-12-10T17:35:07.216Z,14.15
2022-12-10T17:38:09.968Z,14.63
2022-12-10T17:41:12.808Z,15.18
2022-12-10T17:44:16.453Z,15.20
2022-12-10T17:47:19.567Z,15.75
2022-12-10T17:50:22.287Z,16.05
2022-12-10T17:53:25.012Z,17.73
2022-12-10T17:56:27.424Z,14.63
2022-12-10T17:59:30.200Z,16.38
2022-12-10T18:02:33.612Z,16.02
2022-12-10T18:05:37.297Z,15.90
2022-12-10T18:08:40.356Z,15.52
2022-12-10T18:11:43.000Z,15.18
2022-12-10T18:14:45.709Z,14.93
2022-12-10T18:17:48.405Z,16.10
2022-12-10T18:20:50.884Z,15.48
2022-12-10T18:23:53.573Z,15.45
2022-12-10T18:26:55.986Z,14.30
2022-12-10T18:29:58.627Z,15.93
2022-12-10T18:33:02.018Z,15.20
2022-12-10T18:36:04.927Z,15.73
2022-12-10T18:39:08.063Z,15.88
2022-12-10T18:42:10.401Z,14.95
2022-12-10T18:45:13.559Z,15.35
2022-12-10T18:48:16.549Z,17.00
2022-12-10T18:51:19.345Z,16.73
2022-12-10T18:54:22.146Z,15.50
2022-12-10T18:57:33.954Z,16.00
2022-12-10T19:00:38.946Z,16.77
2022-12-10T19:03:47.930Z,17.58
2022-12-10T19:06:51.203Z,16.70
2022-12-10T19:09:54.616Z,17.08
2022-12-10T19:12:57.638Z,16.30
2022-12-10T19:16:00.844Z,15.70
2022-12-10T19:19:04.362Z,17.70
2022-12-10T19:22:07.831Z,15.80
2022-12-10T19:25:10.713Z,14.85
2022-12-10T19:28:19.226Z,17.52
2022-12-10T19:31:21.935Z,17.33
2022-12-10T19:34:24.621Z,14.35
2022-12-10T19:37:27.556Z,16.48
2022-12-10T19:40:30.414Z,17.45
2022-12-10T19:43:33.191Z,17.77
2022-12-10T19:46:35.883Z,18.10
2022-12-10T19:49:38.116Z,18.77
2022-12-10T19:52:40.677Z,18.10
2022-12-10T19:55:43.279Z,17.15
2022-12-10T19:58:45.947Z,17.85
2022-12-10T20:01:49.168Z,18.27
2022-12-10T20:04:52.347Z,18.27
2022-12-10T20:07:55.747Z,17.80
2022-12-10T20:10:58.955Z,17.73
2022-12-10T20:14:02.291Z,18.63
2022-12-10T20:17:04.848Z,17.35
2022-12-10T20:20:07.482Z,18.65
2022-12-10T20:23:10.077Z,18.65
2022-12-10T20:26:13.143Z,17.77
2022-12-10T20:29:18.583Z,16.67
2022-12-10T20:32:21.881Z,18.50
2022-12-10T20:35:24.905Z,17.38
2022-12-10T20:38:28.613Z,17.88
2022-12-10T20:41:30.989Z,17.75
2022-12-10T20:44:34.145Z,17.98
2022-12-10T20:47:39.909Z,18.30
2022-12-10T20:50:42.501Z,19.17
2022-12-10T20:53:45.199Z,18.20
2022-12-10T20:56:47.962Z,18.38
2022-12-10T20:59:50.685Z,20.35
2022-12-10T21:02:53.490Z,19.08
2022-12-10T21:05:55.711Z,18.48
2022-12-10T21:08:58.723Z,18.52
2022-12-10T21:12:01.837Z,20.45
2022-12-10T21:15:14.162Z,17.98
2022-12-10T21:18:21.997Z,18.42
2022-12-10T21:21:24.627Z,17.58
2022-12-10T21:24:27.885Z,19.75
2022-12-10T21:27:31.474Z,19.17
2022-12-10T21:30:35.208Z,17.23
2022-12-10T21:33:39.900Z,18.27
2022-12-10T21:36:42.670Z,17.30
2022-12-10T21:39:44.925Z,18.38
2022-12-10T21:42:47.583Z,17.55
2022-12-10T21:45:50.807Z,17.17
2022-12-10T21:48:53.977Z,18.33
2022-12-10T21:51:56.578Z,18.42
2022-12-10T21:54:59.138Z,19.42
2022-12-10T21:58:01.995Z,17.88
2022-12-10T22:01:05.487Z,21.27
2022-12-10T22:04:09.952Z,16.10
2022-12-10T22:07:15.731Z,18.33
2022-12-10T22:10:18.881Z,17.92
2022-12-10T22:13:22.313Z,18.10
2022-12-10T22:16:25.844Z,17.73
2022-12-10T22:19:29.433Z,17.10
2022-12-10T22:22:32.382Z,16.27
2022-12-10T22:25:35.271Z,17.58
2022-12-10T22:28:38.404Z,16.58
2022-12-10T22:31:41.097Z,15.82
2022-12-10T22:34:45.536Z,16.55
2022-12-10T22:37:48.125Z,15.13
2022-12-10T22:40:51.295Z,17.05
2022-12-10T22:43:54.158Z,16.70
2022-12-10T22:46:58.661Z,15.13
2022-12-10T22:50:01.744Z,19.33
2022-12-10T22:53:05.046Z,16.48
2022-12-10T22:56:07.800Z,17.98
2022-12-10T22:59:10.980Z,17.90
2022-12-10T23:02:13.870Z,17.90
2022-12-10T23:05:16.574Z,17.75
2022-12-10T23:08:19.305Z,19.23
2022-12-10T23:11:22.419Z,15.65
2022-12-10T23:14:25.248Z,16.55
2022-12-10T23:17:28.065Z,17.25
2022-12-10T23:20:30.299Z,16.52
2022-12-10T23:23:33.234Z,17.52
2022-12-10T23:26:40.083Z,15.93
2022-12-10T23:29:44.975Z,16.50
2022-12-10T23:32:47.421Z,17.23
2022-12-10T23:35:50.637Z,16.35
2022-12-10T23:38:53.690Z,17.25
2022-12-10T23:41:57.471Z,13.65
2022-12-10T23:45:00.892Z,15.88
2022-12-10T23:48:03.946Z,15.18
2022-12-10T23:51:07.163Z,18.30
2022-12-10T23:54:10.095Z,17.08
2022-12-10T23:57:12.763Z,17.08
